Time;durP1;ratioP1;P1;durP2;ratioP2;P2;SDS_P1;SDS_P2;PMS_P1;PMS_P2;Temp;Humidity;BMP_temperature;BMP_pressure;BME280_temperature;BME280_humidity;BME280_pressure;Samples;Min_cycle;Max_cycle;Signal;HPM_P1;HPM_P2
2021/05/07 00:01:01;;;;;;;2.93;2.70;;;;;;;16.98;55.85;98778.69;5090652;28;20024;-82
2021/05/07 00:03:27;;;;;;;4.22;3.22;;;;;;;16.94;56.36;98782.06;5090628;28;20024;-82
2021/05/07 00:05:55;;;;;;;4.18;2.50;;;;;;;16.92;56.50;98776.19;5090372;28;20031;-82
2021/05/07 00:08:28;;;;;;;5.82;2.72;;;;;;;16.87;56.51;98776.34;5090529;28;20024;-82
2021/05/07 00:10:55;;;;;;;4.00;2.20;;;;;;;16.87;56.56;98775.53;5089976;28;20056;-82
2021/05/07 00:13:22;;;;;;;2.42;2.22;;;;;;;16.89;56.41;98773.28;5090449;28;20016;-82
2021/05/07 00:15:48;;;;;;;3.22;2.13;;;;;;;16.89;56.66;98774.06;5090158;28;20024;-82
2021/05/07 00:18:13;;;;;;;4.65;2.42;;;;;;;16.85;56.79;98767.75;5090461;28;20168;-83
2021/05/07 00:20:39;;;;;;;4.03;3.08;;;;;;;16.85;56.99;98767.75;5090086;28;20421;-82
2021/05/07 00:23:04;;;;;;;3.30;2.40;;;;;;;16.78;57.43;98768.28;5090365;28;20020;-81
2021/05/07 00:25:31;;;;;;;4.90;2.20;;;;;;;16.74;57.58;98763.84;5090259;28;20455;-83
2021/05/07 00:28:06;;;;;;;2.30;2.10;;;;;;;16.69;57.66;98764.03;5089986;28;20437;-82
2021/05/07 00:30:32;;;;;;;3.70;2.50;;;;;;;16.64;57.71;98765.75;5090018;28;20127;-80
2021/05/07 00:32:58;;;;;;;9.25;3.05;;;;;;;16.63;57.71;98768.78;5089831;28;20027;-82
2021/05/07 00:35:23;;;;;;;3.05;2.72;;;;;;;16.59;57.78;98757.06;5090169;28;20024;-82
2021/05/07 00:37:49;;;;;;;2.67;2.42;;;;;;;16.58;57.89;98758.19;5089883;28;20026;-82
2021/05/07 00:40:16;;;;;;;3.60;2.28;;;;;;;16.58;58.02;98763.56;5090052;28;20061;-82
2021/05/07 00:42:42;;;;;;;2.60;2.40;;;;;;;16.59;58.02;98751.66;5089875;28;20016;-82
2021/05/07 00:45:09;;;;;;;5.63;2.63;;;;;;;16.59;57.83;98759.78;5090109;28;20590;-83
2021/05/07 00:47:43;;;;;;;4.20;2.45;;;;;;;16.60;57.95;98755.94;5089935;28;20028;-82
2021/05/07 00:50:10;;;;;;;3.65;2.90;;;;;;;16.59;57.86;98757.06;5089945;28;20067;-82
2021/05/07 00:52:37;;;;;;;6.70;2.55;;;;;;;16.60;57.83;98754.03;5089943;28;20039;-81
2021/05/07 00:55:06;;;;;;;4.35;2.33;;;;;;;16.59;57.83;98747.06;5089420;28;20030;-80
2021/05/07 00:57:34;;;;;;;4.43;2.83;;;;;;;16.61;58.15;98755.63;5089827;28;20379;-81
2021/05/07 00:59:59;;;;;;;3.13;2.20;;;;;;;16.55;58.11;98742.63;5089698;28;20028;-81
2021/05/07 01:02:25;;;;;;;2.42;2.15;;;;;;;16.54;58.00;98749.94;5089902;28;20050;-81
2021/05/07 01:04:51;;;;;;;2.88;2.33;;;;;;;16.49;58.14;98745.50;5089635;28;20433;-81
2021/05/07 01:07:16;;;;;;;3.35;2.17;;;;;;;16.50;58.30;98751.69;5089834;28;20020;-81
2021/05/07 01:09:42;;;;;;;3.78;2.33;;;;;;;16.46;58.14;98751.53;5089568;28;20028;-81
2021/05/07 01:12:09;;;;;;;2.10;1.90;;;;;;;16.43;58.33;98743.28;5089652;28;20170;-80
2021/05/07 01:14:35;;;;;;;2.78;2.55;;;;;;;16.39;58.77;98742.34;5089823;28;20036;-81
2021/05/07 01:17:01;;;;;;;2.92;2.63;;;;;;;16.35;58.59;98736.81;5089437;28;20012;-81
2021/05/07 01:19:27;;;;;;;4.47;2.83;;;;;;;16.33;58.80;98736.31;5089654;28;20026;-81
2021/05/07 01:21:53;;;;;;;3.15;2.35;;;;;;;16.29;58.97;98728.06;5089428;28;20035;-81
2021/05/07 01:24:20;;;;;;;3.45;2.75;;;;;;;16.24;59.00;98730.19;5089563;28;20032;-81
2021/05/07 01:26:45;;;;;;;3.40;2.75;;;;;;;16.25;58.80;98731.75;5089403;28;20050;-81
2021/05/07 01:29:12;;;;;;;6.68;2.88;;;;;;;16.25;58.66;98731.75;5089686;28;20452;-81
2021/05/07 01:31:37;;;;;;;2.92;2.63;;;;;;;16.27;58.59;98732.22;5089230;28;20040;-81
2021/05/07 01:34:04;;;;;;;4.05;3.05;;;;;;;16.24;59.16;98730.94;5089288;28;20023;-81
2021/05/07 01:36:29;;;;;;;2.47;2.28;;;;;;;16.27;58.77;98733.03;5089556;28;20024;-81
2021/05/07 01:38:55;;;;;;;5.47;2.50;;;;;;;16.30;58.69;98737.75;5089225;28;20081;-81
2021/05/07 01:41:20;;;;;;;7.00;2.40;;;;;;;16.30;58.98;98734.28;5089574;28;20504;-81
2021/05/07 01:43:45;;;;;;;2.85;2.65;;;;;;;16.31;59.12;98746.66;5089204;28;20024;-81
2021/05/07 01:46:11;;;;;;;2.63;2.42;;;;;;;16.32;58.77;98745.56;5089466;28;20024;-81
2021/05/07 01:48:36;;;;;;;2.95;2.30;;;;;;;16.30;58.75;98745.84;5089517;28;20459;-81
2021/05/07 01:51:07;;;;;;;3.08;2.28;;;;;;;16.26;59.00;98753.03;5089083;28;20035;-81
2021/05/07 01:53:32;;;;;;;3.88;2.30;;;;;;;16.25;58.87;98753.34;5089279;28;20048;-81
2021/05/07 01:55:58;;;;;;;5.15;2.20;;;;;;;16.23;59.35;98748.25;5089127;28;20538;-81
2021/05/07 01:58:23;;;;;;;6.90;2.25;;;;;;;16.18;59.34;98751.13;5089262;28;20119;-80
2021/05/07 02:00:49;;;;;;;2.92;2.47;;;;;;;16.14;59.17;98752.88;5088879;28;20020;-81
2021/05/07 02:03:14;;;;;;;5.20;2.75;;;;;;;16.14;59.51;98755.59;5089031;28;20031;-80
2021/05/07 02:05:40;;;;;;;5.00;2.75;;;;;;;16.15;59.38;98760.66;5089390;28;20076;-80
2021/05/07 02:08:07;;;;;;;3.28;2.40;;;;;;;16.16;59.26;98754.16;5090845;28;20032;-80
2021/05/07 02:10:33;;;;;;;4.25;2.60;;;;;;;16.19;59.34;98762.72;5092909;28;20529;-80
2021/05/07 02:13:02;;;;;;;3.25;2.22;;;;;;;16.17;59.17;98760.31;5092474;28;20016;-80
2021/05/07 02:15:27;;;;;;;;;;;;;;;16.19;59.44;98768.91;5093287;28;20020;-80
2021/05/07 02:17:53;;;;;;;4.40;2.63;;;;;;;16.16;59.56;98767.63;5092596;28;19904;-80
2021/05/07 02:20:22;;;;;;;2.78;2.58;;;;;;;16.15;59.28;98763.34;5092727;28;20111;-81
2021/05/07 02:22:49;;;;;;;3.22;2.55;;;;;;;16.15;59.44;98770.66;5092475;28;20066;-80
2021/05/07 02:25:17;;;;;;;7.25;2.60;;;;;;;16.17;59.69;98768.41;5092624;28;20407;-80
2021/05/07 02:27:44;;;;;;;3.15;2.85;;;;;;;16.20;59.18;98766.97;5092646;28;20164;-80
2021/05/07 02:30:12;;;;;;;4.43;2.67;;;;;;;16.21;59.25;98774.78;5092414;28;20028;-80
2021/05/07 02:32:37;;;;;;;7.90;2.67;;;;;;;16.23;59.26;98777.94;5092456;28;20401;-80
2021/05/07 02:35:04;;;;;;;2.85;2.55;;;;;;;16.23;59.29;98764.44;5092204;28;20032;-80
2021/05/07 02:37:30;;;;;;;3.15;2.83;;;;;;;16.23;59.41;98761.75;5092532;28;20110;-81
2021/05/07 02:39:55;;;;;;;7.85;2.42;;;;;;;16.23;59.58;98767.13;5092177;28;20111;-80
2021/05/07 02:42:21;;;;;;;2.80;2.55;;;;;;;16.19;59.71;98760.81;5092691;28;20028;-80
2021/05/07 02:44:46;;;;;;;7.95;2.70;;;;;;;16.19;59.22;98766.22;5093873;28;20020;-80
2021/05/07 02:47:11;;;;;;;5.68;2.65;;;;;;;16.17;58.96;98765.72;5092412;28;20027;-80
2021/05/07 02:49:37;;;;;;;4.35;2.72;;;;;;;16.12;58.46;98771.28;5092227;28;20040;-80
2021/05/07 02:52:04;;;;;;;7.10;3.05;;;;;;;16.06;57.80;98773.34;5091997;28;20020;-79
2021/05/07 02:54:33;;;;;;;3.63;2.90;;;;;;;15.97;57.56;98770.66;5092817;28;20150;-80
2021/05/07 02:57:00;;;;;;;4.03;3.00;;;;;;;15.89;57.34;98768.75;5092385;28;20034;-79
2021/05/07 02:59:26;;;;;;;3.00;2.58;;;;;;;15.85;57.51;98767.81;5092938;28;20037;-81
2021/05/07 03:01:52;;;;;;;4.68;2.65;;;;;;;15.81;57.47;98761.47;5091817;28;20031;-80
2021/05/07 03:04:19;;;;;;;3.42;2.63;;;;;;;15.78;57.50;98757.50;5092245;28;20046;-81
2021/05/07 03:06:45;;;;;;;2.80;2.53;;;;;;;15.72;57.62;98753.38;5092485;28;20024;-80
2021/05/07 03:09:11;;;;;;;5.97;2.58;;;;;;;15.72;58.09;98766.84;5092050;28;20062;-80
2021/05/07 03:11:37;;;;;;;2.42;2.22;;;;;;;15.71;58.23;98772.53;5092225;28;20023;-80
2021/05/07 03:14:03;;;;;;;3.60;2.40;;;;;;;15.68;58.55;98772.09;5091491;28;20032;-81
2021/05/07 03:16:28;;;;;;;2.55;2.35;;;;;;;15.66;58.56;98768.91;5091605;28;20024;-81
2021/05/07 03:18:53;;;;;;;3.75;3.30;;;;;;;15.67;58.38;98775.06;5090925;28;20020;-81
2021/05/07 03:21:19;;;;;;;3.25;2.35;;;;;;;15.75;58.67;98782.38;5091594;28;20459;-81
2021/05/07 03:23:44;;;;;;;2.60;2.40;;;;;;;15.87;58.24;98781.78;5091507;28;20554;-81
2021/05/07 03:26:10;;;;;;;5.60;2.85;;;;;;;16.07;58.49;98780.34;5091134;28;20017;-81
2021/05/07 03:28:39;;;;;;;6.00;3.25;;;;;;;16.28;57.66;98776.97;5091362;28;20034;-81
2021/05/07 03:31:04;;;;;;;3.20;2.55;;;;;;;16.51;56.49;98788.34;5090715;28;20036;-81
2021/05/07 03:33:30;;;;;;;7.78;3.08;;;;;;;16.72;55.12;98787.66;5091221;28;20383;-82
2021/05/07 03:35:55;;;;;;;3.40;2.42;;;;;;;17.02;54.67;98796.63;5090965;28;20058;-81
2021/05/07 03:38:21;;;;;;;3.72;2.58;;;;;;;17.34;53.86;98788.97;5091205;28;20024;-81
2021/05/07 03:40:46;;;;;;;3.80;2.90;;;;;;;17.71;53.08;98794.63;5091161;28;20085;-81
2021/05/07 03:43:12;;;;;;;6.50;2.85;;;;;;;18.14;52.35;98798.13;5090857;28;20031;-81
2021/05/07 03:45:37;;;;;;;4.13;1.95;;;;;;;18.56;51.10;98789.88;5091018;28;20030;-81
2021/05/07 03:48:19;;;;;;;4.47;2.63;;;;;;;19.04;50.32;98794.94;5090671;28;20089;-81
2021/05/07 03:50:45;;;;;;;3.05;2.25;;;;;;;19.57;49.33;98797.72;5090883;28;20478;-81
2021/05/07 03:53:12;;;;;;;3.05;2.70;;;;;;;20.09;48.23;98792.63;5090465;28;20058;-82
2021/05/07 03:55:41;;;;;;;5.03;2.42;;;;;;;20.58;46.62;98799.72;5090788;28;20417;-80
2021/05/07 03:58:07;;;;;;;6.03;2.80;;;;;;;21.09;45.71;98799.88;5090667;28;20394;-81
2021/05/07 04:00:33;;;;;;;5.53;3.03;;;;;;;21.46;44.70;98801.47;5090739;28;20463;-82
2021/05/07 04:03:00;;;;;;;5.20;3.13;;;;;;;21.92;43.53;98806.34;5090135;28;20043;-81
2021/05/07 04:05:25;;;;;;;3.75;3.38;;;;;;;22.37;41.67;98802.16;5090704;28;20475;-82
2021/05/07 04:10:31;;;;;;;3.97;2.80;;;;;;;23.22;39.66;98800.50;5092441;28;20028;-82
2021/05/07 04:15:21;;;;;;;8.98;5.30;;;;;;;23.89;38.20;98801.78;5091844;28;20105;-81
2021/05/07 04:17:47;;;;;;;10.00;5.63;;;;;;;24.28;37.73;98798.72;5090473;28;20536;-82
2021/05/07 04:20:13;;;;;;;2.85;2.33;;;;;;;24.55;36.88;98800.56;5090189;28;20102;-80
2021/05/07 04:22:39;;;;;;;5.25;3.05;;;;;;;24.93;36.67;98804.81;5090281;28;20031;-80
2021/05/07 04:25:07;;;;;;;12.55;7.72;;;;;;;25.31;35.88;98801.94;5090169;28;20084;-80
2021/05/07 04:27:32;;;;;;;4.35;2.70;;;;;;;25.59;35.16;98803.31;5089892;28;20518;-81
2021/05/07 04:29:58;;;;;;;3.75;3.05;;;;;;;26.00;34.94;98805.03;5089013;28;20154;-81
2021/05/07 04:32:23;;;;;;;3.15;2.45;;;;;;;26.22;33.92;98800.47;5090013;28;20059;-80
2021/05/07 04:34:49;;;;;;;2.17;2.00;;;;;;;26.45;33.51;98807.56;5090152;28;20032;-80
2021/05/07 04:37:14;;;;;;;4.80;3.13;;;;;;;26.76;33.28;98808.03;5089855;28;20032;-80
2021/05/07 04:39:40;;;;;;;7.32;3.17;;;;;;;27.02;32.72;98819.78;5089974;28;20027;-81
2021/05/07 04:42:06;;;;;;;3.83;2.45;;;;;;;27.22;32.37;98817.38;5089943;28;20032;-80
2021/05/07 04:44:31;;;;;;;6.25;3.47;;;;;;;27.37;32.23;98809.91;5090170;28;20032;-80
2021/05/07 04:46:59;;;;;;;7.35;3.28;;;;;;;27.56;32.05;98806.78;5090428;28;20413;-80
2021/05/07 04:49:25;;;;;;;2.25;2.05;;;;;;;27.59;31.81;98816.19;5090311;28;20452;-81
2021/05/07 04:51:51;;;;;;;2.65;2.28;;;;;;;27.71;31.64;98812.19;5089761;28;20556;-81
2021/05/07 04:54:16;;;;;;;5.03;2.20;;;;;;;27.79;31.30;98811.78;5089799;28;20028;-81
2021/05/07 04:56:41;;;;;;;3.80;2.15;;;;;;;27.87;31.48;98811.75;5090000;28;20016;-80
2021/05/07 04:59:07;;;;;;;3.00;2.38;;;;;;;27.95;31.65;98816.84;5089680;28;20024;-80
2021/05/07 05:01:32;;;;;;;4.45;3.08;;;;;;;28.05;31.31;98815.25;5089809;28;20446;-81
2021/05/07 05:03:58;;;;;;;10.65;3.00;;;;;;;28.13;30.97;98821.47;5089686;28;20034;-81
2021/05/07 05:06:23;;;;;;;2.78;2.20;;;;;;;28.25;31.20;98818.28;5091430;28;20024;-81
2021/05/07 05:08:48;;;;;;;3.75;2.47;;;;;;;28.35;30.80;98826.88;5089739;28;20028;-81
2021/05/07 05:11:14;;;;;;;3.13;2.45;;;;;;;28.44;31.00;98825.25;5089531;28;20058;-80
2021/05/07 05:13:39;;;;;;;3.13;2.17;;;;;;;28.61;31.02;98831.00;5089662;28;20024;-80
2021/05/07 05:16:06;;;;;;;4.38;2.50;;;;;;;28.78;30.81;98831.34;5089541;28;20066;-81
2021/05/07 05:18:34;;;;;;;2.58;2.38;;;;;;;28.95;30.45;98837.88;5089746;28;20028;-80
2021/05/07 05:21:01;;;;;;;2.25;2.05;;;;;;;29.02;30.11;98835.06;5089422;28;20098;-80
2021/05/07 05:23:27;;;;;;;;;;;;;;;29.04;29.15;98846.44;5090138;28;20020;-81
2021/05/07 05:25:52;;;;;;;4.05;2.15;;;;;;;29.04;29.32;98835.44;5089468;28;19957;-81
2021/05/07 05:28:18;;;;;;;3.10;1.67;;;;;;;28.98;29.62;98834.31;5089380;28;20035;-81
2021/05/07 05:30:44;;;;;;;2.25;2.05;;;;;;;28.83;29.52;98831.69;5089448;28;20051;-81
2021/05/07 05:33:09;;;;;;;4.25;2.53;;;;;;;28.71;29.93;98837.66;5089158;28;20012;-81
2021/05/07 05:35:35;;;;;;;2.42;1.80;;;;;;;28.63;30.05;98833.38;5089430;28;20032;-81
2021/05/07 05:38:01;;;;;;;3.65;2.47;;;;;;;28.27;30.21;98835.16;5089242;28;20051;-80
2021/05/07 05:40:26;;;;;;;2.90;2.30;;;;;;;27.99;30.30;98847.06;5089557;28;20121;-80
2021/05/07 05:42:52;;;;;;;7.10;2.42;;;;;;;27.57;30.39;98851.50;5092538;28;20024;-81
2021/05/07 05:45:18;;;;;;;2.85;1.90;;;;;;;27.32;30.69;98850.31;5093110;28;20468;-80
2021/05/07 05:47:43;;;;;;;7.80;2.47;;;;;;;27.03;31.26;98857.03;5093225;28;20016;-80
2021/05/07 05:50:09;;;;;;;3.17;2.95;;;;;;;26.76;31.46;98849.94;5093053;28;20032;-80
2021/05/07 05:52:35;;;;;;;3.63;2.60;;;;;;;26.46;32.09;98851.03;5093035;28;20024;-80
2021/05/07 05:55:01;;;;;;;2.25;2.05;;;;;;;26.29;31.83;98855.31;5092931;28;20031;-81
2021/05/07 05:57:26;;;;;;;3.15;2.33;;;;;;;26.15;32.59;98849.78;5093053;28;20474;-82
2021/05/07 05:59:52;;;;;;;3.88;2.58;;;;;;;26.24;31.89;98852.16;5093178;28;20547;-81
2021/05/07 06:02:19;;;;;;;2.80;2.42;;;;;;;26.21;32.35;98846.25;5092703;28;20016;-80
2021/05/07 06:04:44;;;;;;;3.38;2.60;;;;;;;26.36;32.48;98855.31;5092985;28;20114;-81
2021/05/07 06:07:09;;;;;;;2.70;2.40;;;;;;;26.46;32.67;98855.72;5092684;28;20378;-80
2021/05/07 06:09:35;;;;;;;6.10;2.50;;;;;;;26.53;32.10;98853.78;5092859;28;20038;-80
2021/05/07 06:12:06;;;;;;;2.20;2.10;;;;;;;26.66;32.25;98858.91;5092545;28;20020;-81
2021/05/07 06:14:31;;;;;;;4.55;2.92;;;;;;;26.68;31.83;98851.88;5092642;28;20028;-80
2021/05/07 06:16:57;;;;;;;6.20;2.65;;;;;;;26.56;32.21;98848.69;5092383;28;20093;-80
2021/05/07 06:19:22;;;;;;;5.00;2.20;;;;;;;26.61;32.38;98851.84;5092695;28;20428;-81
2021/05/07 06:21:48;;;;;;;3.30;2.17;;;;;;;26.65;32.13;98852.63;5092601;28;20016;-80
2021/05/07 06:24:14;;;;;;;3.78;2.33;;;;;;;26.39;31.83;98842.00;5092352;28;20671;-80
2021/05/07 06:26:40;;;;;;;2.40;2.20;;;;;;;26.20;32.30;98850.16;5092674;28;20023;-80
2021/05/07 06:29:05;;;;;;;2.38;2.15;;;;;;;26.03;33.23;98848.13;5092204;28;20395;-80
2021/05/07 06:31:31;;;;;;;5.25;2.53;;;;;;;26.00;33.55;98849.69;5092141;28;20039;-81
2021/05/07 06:33:57;;;;;;;3.17;2.15;;;;;;;25.93;33.47;98849.66;5092292;28;20020;-81
2021/05/07 06:36:22;;;;;;;3.78;1.80;;;;;;;25.82;33.78;98860.56;5092058;28;20035;-80
2021/05/07 06:38:48;;;;;;;2.58;2.38;;;;;;;25.87;33.41;98851.97;5092391;28;20013;-80
2021/05/07 06:41:13;;;;;;;5.47;3.55;;;;;;;25.88;33.50;98856.28;5092052;28;20024;-80
2021/05/07 06:43:39;;;;;;;1.80;1.70;;;;;;;25.90;33.86;98858.63;5092213;28;20020;-80
2021/05/07 06:46:04;;;;;;;2.45;2.25;;;;;;;25.87;34.03;98851.97;5091907;28;20035;-81
2021/05/07 06:48:30;;;;;;;3.20;2.90;;;;;;;25.74;34.00;98847.97;5092232;28;20016;-80
2021/05/07 06:50:55;;;;;;;2.80;2.20;;;;;;;25.68;34.15;98853.06;5092066;28;20452;-80
2021/05/07 06:53:22;;;;;;;5.32;2.38;;;;;;;25.67;34.46;98851.47;5091028;28;20027;-80
2021/05/07 06:55:47;;;;;;;2.90;2.20;;;;;;;25.60;34.03;98845.97;5091929;28;20115;-80
2021/05/07 06:58:12;;;;;;;2.45;2.15;;;;;;;25.68;33.59;98846.78;5091646;28;20121;-81
2021/05/07 07:00:38;;;;;;;2.95;2.22;;;;;;;25.73;33.62;98849.94;5092007;28;20020;-80
2021/05/07 07:03:04;;;;;;;3.80;2.45;;;;;;;25.61;34.20;98853.00;5091603;28;20019;-80
2021/05/07 07:05:29;;;;;;;6.28;2.40;;;;;;;25.40;34.67;98835.28;5091993;28;20069;-80
2021/05/07 07:07:54;;;;;;;4.60;2.33;;;;;;;25.30;34.54;98846.13;5091926;28;20024;-81
2021/05/07 07:10:22;;;;;;;3.45;2.20;;;;;;;25.19;35.49;98846.03;5091656;28;20458;-81
2021/05/07 07:12:47;;;;;;;2.03;1.83;;;;;;;25.17;35.71;98846.44;5091960;28;20218;-80
2021/05/07 07:15:13;;;;;;;2.28;2.00;;;;;;;25.20;35.04;98840.19;5091366;28;20570;-82
2021/05/07 07:17:39;;;;;;;3.28;2.17;;;;;;;25.04;35.20;98845.16;5091736;28;20386;-80
2021/05/07 07:20:05;;;;;;;2.13;1.92;;;;;;;24.81;34.53;98857.06;5090965;28;20027;-81
2021/05/07 07:22:31;;;;;;;2.30;2.03;;;;;;;24.75;34.87;98853.09;5091317;28;20024;-81
2021/05/07 07:24:56;;;;;;;2.30;1.90;;;;;;;24.68;35.07;98848.38;5091551;28;20455;-82
2021/05/07 07:27:22;;;;;;;5.03;2.20;;;;;;;24.60;35.17;98850.19;5091184;28;20027;-81
2021/05/07 07:29:47;;;;;;;1.92;1.83;;;;;;;24.55;35.04;98849.78;5091373;28;20395;-82
2021/05/07 07:32:14;;;;;;;3.92;2.35;;;;;;;24.37;35.75;98844.88;5090791;28;20076;-81
2021/05/07 07:34:40;;;;;;;6.72;2.53;;;;;;;24.29;36.26;98841.28;5091314;28;20406;-81
2021/05/07 07:37:05;;;;;;;3.05;2.80;;;;;;;24.14;36.14;98845.00;5090900;28;20034;-81
2021/05/07 07:39:31;;;;;;;4.57;2.72;;;;;;;24.13;36.38;98846.97;5091144;28;20020;-82
2021/05/07 07:41:56;;;;;;;4.32;2.50;;;;;;;24.08;36.79;98844.56;5090883;28;20122;-82
2021/05/07 07:44:22;;;;;;;2.58;2.38;;;;;;;24.05;36.19;98839.84;5090831;28;20015;-82
2021/05/07 07:46:47;;;;;;;2.78;2.35;;;;;;;24.10;36.94;98836.78;5090998;28;20161;-81
2021/05/07 07:49:13;;;;;;;3.30;2.65;;;;;;;24.16;37.27;98839.16;5090840;28;20057;-81
2021/05/07 07:51:39;;;;;;;3.22;1.92;;;;;;;24.25;36.96;98834.97;5090908;28;20106;-82
2021/05/07 07:54:06;;;;;;;2.33;2.08;;;;;;;24.37;36.79;98836.69;5090801;28;20020;-82
2021/05/07 07:56:32;;;;;;;2.40;2.20;;;;;;;24.56;37.01;98832.97;5090811;28;20032;-82
2021/05/07 07:58:57;;;;;;;2.80;2.05;;;;;;;24.74;36.58;98835.91;5090819;28;20031;-82
2021/05/07 08:01:23;;;;;;;3.63;2.58;;;;;;;24.79;36.14;98829.31;5090515;28;20024;-81
2021/05/07 08:03:49;;;;;;;4.03;2.33;;;;;;;24.83;36.56;98826.59;5090716;28;20103;-81
2021/05/07 08:06:15;;;;;;;2.45;2.20;;;;;;;24.83;37.21;98810.19;5090147;28;20051;-81
2021/05/07 08:08:40;;;;;;;2.40;2.08;;;;;;;24.96;36.70;98818.91;5090617;28;20099;-81
2021/05/07 08:11:05;;;;;;;1.98;1.88;;;;;;;24.89;36.13;98816.88;5090384;28;20148;-82
2021/05/07 08:13:31;;;;;;;5.53;3.03;;;;;;;24.85;36.17;98813.34;5090557;28;20493;-81
2021/05/07 08:15:56;;;;;;;3.55;2.65;;;;;;;24.79;36.28;98812.88;5090617;28;20388;-80
2021/05/07 08:18:22;;;;;;;4.45;2.20;;;;;;;24.83;36.19;98813.72;5090203;28;20024;-81
2021/05/07 08:20:47;;;;;;;3.20;2.90;;;;;;;24.74;36.34;98805.84;5090563;28;20047;-81
2021/05/07 08:23:13;;;;;;;3.35;2.75;;;;;;;24.57;36.68;98792.75;5090161;28;20355;-81
2021/05/07 08:25:38;;;;;;;8.00;2.30;;;;;;;24.45;36.86;98791.09;5090315;28;20023;-81
2021/05/07 08:28:04;;;;;;;3.58;2.70;;;;;;;24.37;36.72;98792.19;5090133;28;20023;-81
2021/05/07 08:30:30;;;;;;;6.18;2.22;;;;;;;24.22;36.94;98781.09;5090042;28;20312;-82
2021/05/07 08:32:55;;;;;;;3.30;2.30;;;;;;;24.14;37.88;98782.97;5090188;28;20442;-81
2021/05/07 08:35:22;;;;;;;6.80;2.85;;;;;;;24.10;37.43;98773.94;5090045;28;20406;-81
2021/05/07 08:37:47;;;;;;;4.10;2.90;;;;;;;24.11;37.55;98775.53;5089978;28;20028;-82
2021/05/07 08:40:15;;;;;;;2.60;2.40;;;;;;;24.18;38.49;98772.09;5090023;28;20049;-82
2021/05/07 08:42:41;;;;;;;2.38;2.17;;;;;;;24.24;37.74;98769.78;5090091;28;20103;-81
2021/05/07 08:45:08;;;;;;;4.00;2.55;;;;;;;24.28;37.58;98767.91;5089921;28;20451;-79
2021/05/07 08:47:34;;;;;;;4.18;2.60;;;;;;;24.32;37.34;98779.63;5090222;28;20020;-80
2021/05/07 08:50:00;;;;;;;5.38;3.45;;;;;;;24.25;36.72;98774.09;5090614;28;20055;-80
2021/05/07 08:52:27;;;;;;;3.13;2.40;;;;;;;24.20;36.86;98777.19;5091008;28;20032;-81
2021/05/07 08:54:53;;;;;;;2.80;2.53;;;;;;;24.18;37.40;98772.09;5090062;28;20066;-81
2021/05/07 08:57:18;;;;;;;10.48;3.20;;;;;;;24.15;37.44;98772.81;5089778;28;20051;-81
2021/05/07 08:59:44;;;;;;;3.40;2.83;;;;;;;24.08;37.42;98765.34;5090096;28;20129;-81
2021/05/07 09:02:10;;;;;;;4.10;2.55;;;;;;;24.08;37.68;98748.16;5089733;28;20020;-80
2021/05/07 09:04:35;;;;;;;4.15;2.95;;;;;;;24.07;37.80;98739.19;5089934;28;20386;-81
2021/05/07 09:07:11;;;;;;;4.78;2.85;;;;;;;24.12;38.02;98732.59;5089941;28;20495;-81
2021/05/07 09:09:52;;;;;;;4.03;2.30;;;;;;;24.17;38.22;98735.00;5090055;28;20059;-81
2021/05/07 09:12:32;;;;;;;2.38;2.17;;;;;;;24.24;38.28;98734.28;5089854;28;20024;-81
2021/05/07 09:14:59;;;;;;;3.92;2.45;;;;;;;24.30;37.85;98733.56;5089905;28;20127;-81
2021/05/07 09:17:26;;;;;;;3.80;2.00;;;;;;;24.42;37.64;98737.94;5092081;28;20028;-81
2021/05/07 09:20:21;;;;;;;5.65;2.35;;;;;;;24.56;37.34;98728.31;5093814;28;20258;-81
2021/05/07 09:22:46;;;;;;;2.40;2.20;;;;;;;24.65;37.79;98714.34;5080291;28;20093;-80
2021/05/07 09:25:17;;;;;;;2.88;2.45;;;;;;;24.76;37.75;98701.53;5093538;28;20024;-81
2021/05/07 09:27:44;;;;;;;5.78;3.00;;;;;;;24.74;37.26;98710.13;5093713;28;20100;-81
2021/05/07 09:30:30;;;;;;;2.83;2.10;;;;;;;24.71;37.77;98719.09;5093436;28;20107;-81
2021/05/07 09:32:56;;;;;;;5.63;2.58;;;;;;;24.78;38.22;98710.94;5092807;28;20036;-80
2021/05/07 09:35:29;;;;;;;2.45;2.03;;;;;;;24.85;38.17;98696.53;5093450;28;20077;-81
2021/05/07 09:38:04;;;;;;;3.55;2.70;;;;;;;24.91;37.83;98700.47;5093690;28;20394;-82
2021/05/07 09:40:31;;;;;;;3.58;2.42;;;;;;;25.03;37.52;98704.84;5093331;28;20032;-81
2021/05/07 09:43:07;;;;;;;2.50;2.05;;;;;;;25.04;37.38;98695.47;5093575;28;20024;-82
2021/05/07 09:45:34;;;;;;;5.13;2.50;;;;;;;25.03;37.37;98687.66;5093344;28;20017;-82
2021/05/07 09:48:00;;;;;;;2.35;2.00;;;;;;;24.94;37.91;98694.25;5093309;28;20475;-82
2021/05/07 09:50:40;;;;;;;4.38;2.08;;;;;;;24.90;38.26;98698.13;5093043;28;20024;-82
2021/05/07 09:53:21;;;;;;;4.38;1.88;;;;;;;24.83;38.04;98684.38;5092969;28;20035;-83
2021/05/07 09:55:49;;;;;;;2.67;2.10;;;;;;;24.81;38.23;98679.31;5093288;28;20386;-82
2021/05/07 09:58:14;;;;;;;4.53;1.98;;;;;;;24.78;38.09;98683.59;5092970;28;20026;-83
2021/05/07 10:00:40;;;;;;;2.78;2.00;;;;;;;24.79;38.54;98678.91;5093106;28;20115;-82
2021/05/07 10:03:06;;;;;;;5.50;2.65;;;;;;;24.83;38.04;98668.78;5093126;28;20044;-82
2021/05/07 10:05:36;;;;;;;4.45;2.30;;;;;;;24.94;37.87;98666.88;5093185;28;20042;-81
2021/05/07 10:08:02;;;;;;;4.15;1.77;;;;;;;25.02;37.29;98666.94;5093113;28;20021;-81
2021/05/07 10:10:31;;;;;;;4.13;2.20;;;;;;;25.08;36.64;98652.53;5092437;28;20028;-81
2021/05/07 10:12:59;;;;;;;2.80;1.55;;;;;;;25.16;36.84;98645.13;5092906;28;20035;-80
2021/05/07 10:15:27;;;;;;;4.10;1.85;;;;;;;25.18;37.07;98639.25;5092636;28;20026;-82
2021/05/07 10:17:52;;;;;;;3.58;1.75;;;;;;;25.26;37.67;98638.13;5092817;28;20027;-81
2021/05/07 10:20:33;;;;;;;4.82;1.58;;;;;;;25.23;36.99;98617.78;5092535;28;20035;-81
2021/05/07 10:23:00;;;;;;;2.10;1.60;;;;;;;25.20;36.78;98618.53;5092449;28;20028;-82
2021/05/07 10:25:27;;;;;;;3.47;1.48;;;;;;;25.19;36.61;98610.72;5092571;28;20016;-81
2021/05/07 10:27:55;;;;;;;3.33;2.20;;;;;;;25.23;36.47;98611.50;5091631;28;20459;-82
2021/05/07 10:30:32;;;;;;;1.73;1.27;;;;;;;25.31;36.28;98613.09;5091732;28;20040;-82
2021/05/07 10:33:15;;;;;;;1.88;1.58;;;;;;;25.42;34.79;98610.44;5092348;28;20020;-82
2021/05/07 10:35:41;;;;;;;1.52;1.00;;;;;;;25.52;32.69;98615.19;5092581;28;20020;-82
2021/05/07 10:38:13;;;;;;;2.05;1.10;;;;;;;25.61;33.02;98612.06;5092380;28;20020;-81
2021/05/07 10:40:39;;;;;;;1.10;1.00;;;;;;;25.77;33.38;98605.41;5092363;28;20051;-81
2021/05/07 10:43:06;;;;;;;2.00;1.20;;;;;;;25.94;32.04;98606.59;5092340;28;20089;-81
2021/05/07 10:45:51;;;;;;;2.42;0.90;;;;;;;26.14;30.71;98604.31;5091997;28;20047;-82
2021/05/07 10:48:20;;;;;;;2.63;1.80;;;;;;;26.33;29.41;98598.41;5091953;28;20048;-81
2021/05/07 10:50:47;;;;;;;1.27;1.10;;;;;;;26.53;28.39;98587.81;5092061;28;20028;-81
2021/05/07 10:53:26;;;;;;;1.20;1.10;;;;;;;26.77;28.58;98601.09;5091849;28;20016;-82
2021/05/07 10:55:52;;;;;;;1.35;0.93;;;;;;;26.96;26.15;98588.88;5092089;28;20379;-81
2021/05/07 10:58:32;;;;;;;1.13;0.82;;;;;;;27.11;26.25;98584.13;5091788;28;20035;-82
2021/05/07 11:00:58;;;;;;;1.10;1.00;;;;;;;27.23;26.23;98582.88;5092028;28;20032;-82
2021/05/07 11:03:24;;;;;;;1.70;1.10;;;;;;;27.31;25.39;98576.19;5091710;28;20068;-82
2021/05/07 11:05:51;;;;;;;4.03;2.00;;;;;;;27.36;25.88;98583.22;5091862;28;20024;-82
2021/05/07 11:08:17;;;;;;;3.30;1.30;;;;;;;27.42;26.60;98576.16;5091691;28;20098;-82
2021/05/07 11:10:43;;;;;;;1.58;0.73;;;;;;;27.48;26.04;98571.81;5091652;28;20398;-82
2021/05/07 11:13:10;;;;;;;1.33;0.80;;;;;;;27.52;25.88;98569.81;5091586;28;20020;-82
2021/05/07 11:15:37;;;;;;;3.22;0.75;;;;;;;27.53;25.93;98557.66;5091597;28;20031;-82
2021/05/07 11:18:09;;;;;;;1.33;0.80;;;;;;;27.62;26.03;98559.94;5091616;28;20020;-82
2021/05/07 11:20:38;;;;;;;1.42;0.93;;;;;;;27.63;25.36;98545.00;5091284;28;20398;-83
2021/05/07 11:23:06;;;;;;;1.08;0.93;;;;;;;27.74;25.62;98545.72;5091467;28;20024;-82
2021/05/07 11:25:33;;;;;;;2.22;1.00;;;;;;;27.87;26.19;98548.75;5091186;28;20542;-82
2021/05/07 11:28:13;;;;;;;2.10;0.82;;;;;;;27.96;25.58;98546.34;5091378;28;20364;-82
2021/05/07 11:30:56;;;;;;;4.85;0.90;;;;;;;28.03;25.42;98545.47;5091054;28;20466;-81
2021/05/07 11:33:24;;;;;;;1.25;1.15;;;;;;;28.07;25.17;98538.00;5090902;28;20527;-82
2021/05/07 11:36:02;;;;;;;0.85;0.68;;;;;;;28.07;24.77;98528.97;5091224;28;20383;-82
2021/05/07 11:38:28;;;;;;;;;;;;;;;28.04;24.89;98535.25;5091407;28;20394;-81